Terminal Aerodrome Forecast
Issued by NWS

Home | Current Version | Previous Version | Text Only | Print | Product List | Glossary Off
Versions: 1 2 3 4 5 6 7 8 9 10 11 12 13 14 15 16 17 18 19

000
FTUS43 KICT 300500
TAFCNU
TAF
KCNU 300520Z 3006/3106 VRB05KT P6SM SCT070 BKN090
     FM300900 VRB05KT P6SM VCSH BKN050
      TEMPO 3009/3012 -SHRA
     FM301200 12007KT 5SM BR VCTS SCT020 OVC040CB
     FM310200 VRB05KT P6SM SCT025 OVC035=

USA.gov is the U.S. government's official web portal to all federal, state and local government web resources and services.